sensor_id;sensor_type;location;lat;lon;timestamp;temperature;humidity
1107;DHT22;540;49.448;8.612;2023-01-23T00:01:16;2.20;99.90
1107;DHT22;540;49.448;8.612;2023-01-23T00:03:44;2.40;99.90
1107;DHT22;540;49.448;8.612;2023-01-23T00:06:13;2.80;99.90
1107;DHT22;540;49.448;8.612;2023-01-23T00:08:43;2.90;99.90
1107;DHT22;540;49.448;8.612;2023-01-23T00:11:16;2.70;99.90
1107;DHT22;540;49.448;8.612;2023-01-23T00:13:44;2.90;99.90
1107;DHT22;540;49.448;8.612;2023-01-23T00:16:14;2.80;99.90
1107;DHT22;540;49.448;8.612;2023-01-23T00:18:43;3.00;99.90
1107;DHT22;540;49.448;8.612;2023-01-23T00:21:12;2.70;99.90
1107;DHT22;540;49.448;8.612;2023-01-23T00:23:42;3.10;99.90
1107;DHT22;540;49.448;8.612;2023-01-23T00:26:13;2.80;99.90
1107;DHT22;540;49.448;8.612;2023-01-23T00:28:42;3.20;99.90
1107;DHT22;540;49.448;8.612;2023-01-23T00:31:12;3.20;99.90
1107;DHT22;540;49.448;8.612;2023-01-23T00:33:42;3.00;99.90
1107;DHT22;540;49.448;8.612;2023-01-23T00:36:11;3.20;99.90
1107;DHT22;540;49.448;8.612;2023-01-23T00:38:39;3.10;99.90
1107;DHT22;540;49.448;8.612;2023-01-23T00:41:07;3.20;99.90
1107;DHT22;540;49.448;8.612;2023-01-23T00:43:36;2.90;99.90
1107;DHT22;540;49.448;8.612;2023-01-23T00:46:04;3.20;99.90
1107;DHT22;540;49.448;8.612;2023-01-23T00:48:32;3.00;99.90
1107;DHT22;540;49.448;8.612;2023-01-23T00:51:00;2.40;99.90
1107;DHT22;540;49.448;8.612;2023-01-23T00:53:28;2.70;99.90
1107;DHT22;540;49.448;8.612;2023-01-23T00:55:56;2.90;99.90
1107;DHT22;540;49.448;8.612;2023-01-23T00:58:24;2.50;99.90
1107;DHT22;540;49.448;8.612;2023-01-23T01:00:53;2.80;99.90
1107;DHT22;540;49.448;8.612;2023-01-23T01:03:21;3.00;99.90
1107;DHT22;540;49.448;8.612;2023-01-23T01:05:51;3.20;99.90
1107;DHT22;540;49.448;8.612;2023-01-23T01:08:18;3.00;99.90
1107;DHT22;540;49.448;8.612;2023-01-23T01:10:46;2.30;99.90
1107;DHT22;540;49.448;8.612;2023-01-23T01:13:14;2.30;99.90
1107;DHT22;540;49.448;8.612;2023-01-23T01:15:45;2.90;99.90
1107;DHT22;540;49.448;8.612;2023-01-23T01:18:14;2.60;99.90
1107;DHT22;540;49.448;8.612;2023-01-23T01:20:42;2.70;99.90
1107;DHT22;540;49.448;8.612;2023-01-23T01:23:10;2.30;99.90
1107;DHT22;540;49.448;8.612;2023-01-23T01:25:38;1.80;99.90
1107;DHT22;540;49.448;8.612;2023-01-23T01:28:07;2.70;99.90
1107;DHT22;540;49.448;8.612;2023-01-23T01:30:34;2.40;99.90
1107;DHT22;540;49.448;8.612;2023-01-23T01:33:03;2.20;99.90
1107;DHT22;540;49.448;8.612;2023-01-23T01:35:32;2.20;99.90
1107;DHT22;540;49.448;8.612;2023-01-23T01:38:00;2.20;99.90
1107;DHT22;540;49.448;8.612;2023-01-23T01:40:32;1.70;99.90
1107;DHT22;540;49.448;8.612;2023-01-23T01:43:02;2.40;99.90
1107;DHT22;540;49.448;8.612;2023-01-23T01:46:05;2.60;99.90
1107;DHT22;540;49.448;8.612;2023-01-23T01:48:37;2.30;99.90
1107;DHT22;540;49.448;8.612;2023-01-23T01:51:12;2.40;99.90
1107;DHT22;540;49.448;8.612;2023-01-23T01:53:42;2.50;99.90
1107;DHT22;540;49.448;8.612;2023-01-23T01:56:13;2.60;99.90
1107;DHT22;540;49.448;8.612;2023-01-23T01:58:44;2.50;99.90
1107;DHT22;540;49.448;8.612;2023-01-23T02:01:13;2.50;99.90
1107;DHT22;540;49.448;8.612;2023-01-23T02:03:42;3.00;99.90
1107;DHT22;540;49.448;8.612;2023-01-23T02:06:11;2.70;99.90
1107;DHT22;540;49.448;8.612;2023-01-23T02:08:45;3.00;99.90
1107;DHT22;540;49.448;8.612;2023-01-23T02:11:14;2.80;99.90
1107;DHT22;540;49.448;8.612;2023-01-23T02:13:44;2.70;99.90
1107;DHT22;540;49.448;8.612;2023-01-23T02:16:14;2.80;99.90
1107;DHT22;540;49.448;8.612;2023-01-23T02:18:45;3.40;99.90
1107;DHT22;540;49.448;8.612;2023-01-23T02:21:19;3.00;99.90
1107;DHT22;540;49.448;8.612;2023-01-23T02:24:02;3.30;99.90
1107;DHT22;540;49.448;8.612;2023-01-23T02:26:37;2.80;99.90
1107;DHT22;540;49.448;8.612;2023-01-23T02:29:06;2.90;99.90
1107;DHT22;540;49.448;8.612;2023-01-23T02:31:34;2.80;99.90
1107;DHT22;540;49.448;8.612;2023-01-23T02:34:03;3.00;99.90
1107;DHT22;540;49.448;8.612;2023-01-23T02:36:33;2.70;99.90
1107;DHT22;540;49.448;8.612;2023-01-23T02:39:05;2.90;99.90
1107;DHT22;540;49.448;8.612;2023-01-23T02:41:37;2.70;99.90
1107;DHT22;540;49.448;8.612;2023-01-23T02:44:08;3.20;99.90
1107;DHT22;540;49.448;8.612;2023-01-23T02:46:38;3.40;99.90
1107;DHT22;540;49.448;8.612;2023-01-23T02:49:06;2.80;99.90
1107;DHT22;540;49.448;8.612;2023-01-23T02:51:34;3.10;99.90
1107;DHT22;540;49.448;8.612;2023-01-23T02:54:03;3.10;99.90
1107;DHT22;540;49.448;8.612;2023-01-23T02:56:31;2.90;99.90
1107;DHT22;540;49.448;8.612;2023-01-23T02:59:01;2.90;99.90
1107;DHT22;540;49.448;8.612;2023-01-23T03:01:46;3.20;99.90
1107;DHT22;540;49.448;8.612;2023-01-23T03:04:14;2.90;99.90
1107;DHT22;540;49.448;8.612;2023-01-23T03:06:42;3.00;99.90
1107;DHT22;540;49.448;8.612;2023-01-23T03:09:12;2.80;99.90
1107;DHT22;540;49.448;8.612;2023-01-23T03:11:42;3.40;99.90
1107;DHT22;540;49.448;8.612;2023-01-23T03:14:13;2.90;99.90
1107;DHT22;540;49.448;8.612;2023-01-23T03:16:41;2.70;99.90
1107;DHT22;540;49.448;8.612;2023-01-23T03:19:12;3.00;99.90
1107;DHT22;540;49.448;8.612;2023-01-23T03:21:40;2.50;99.90
1107;DHT22;540;49.448;8.612;2023-01-23T03:24:10;3.00;99.90
1107;DHT22;540;49.448;8.612;2023-01-23T03:26:39;3.10;99.90
1107;DHT22;540;49.448;8.612;2023-01-23T03:29:07;2.90;99.90
1107;DHT22;540;49.448;8.612;2023-01-23T03:31:58;2.90;99.90
1107;DHT22;540;49.448;8.612;2023-01-23T03:34:26;3.30;99.90
1107;DHT22;540;49.448;8.612;2023-01-23T03:36:54;3.00;99.90
1107;DHT22;540;49.448;8.612;2023-01-23T03:39:22;3.00;99.90
1107;DHT22;540;49.448;8.612;2023-01-23T03:42:07;3.00;99.90
1107;DHT22;540;49.448;8.612;2023-01-23T03:44:35;3.40;99.90
1107;DHT22;540;49.448;8.612;2023-01-23T03:47:04;3.20;99.90
1107;DHT22;540;49.448;8.612;2023-01-23T03:49:32;3.30;99.90
1107;DHT22;540;49.448;8.612;2023-01-23T03:52:00;3.20;99.90
1107;DHT22;540;49.448;8.612;2023-01-23T03:54:28;2.90;99.90
1107;DHT22;540;49.448;8.612;2023-01-23T03:56:56;3.10;99.90
1107;DHT22;540;49.448;8.612;2023-01-23T03:59:24;3.20;99.90
1107;DHT22;540;49.448;8.612;2023-01-23T04:01:52;3.10;99.90
1107;DHT22;540;49.448;8.612;2023-01-23T04:04:21;3.40;99.90
1107;DHT22;540;49.448;8.612;2023-01-23T04:06:48;3.10;99.90
1107;DHT22;540;49.448;8.612;2023-01-23T04:09:16;3.00;99.90
1107;DHT22;540;49.448;8.612;2023-01-23T04:11:44;3.20;99.90
1107;DHT22;540;49.448;8.612;2023-01-23T04:14:12;3.10;99.90
1107;DHT22;540;49.448;8.612;2023-01-23T04:16:40;3.10;99.90
1107;DHT22;540;49.448;8.612;2023-01-23T04:19:07;3.20;99.90
1107;DHT22;540;49.448;8.612;2023-01-23T04:21:37;3.00;99.90
1107;DHT22;540;49.448;8.612;2023-01-23T04:24:05;3.00;99.90
1107;DHT22;540;49.448;8.612;2023-01-23T04:26:33;3.20;99.90
1107;DHT22;540;49.448;8.612;2023-01-23T04:29:01;2.90;99.90
1107;DHT22;540;49.448;8.612;2023-01-23T04:31:29;3.00;99.90
1107;DHT22;540;49.448;8.612;2023-01-23T04:33:57;3.00;99.90
1107;DHT22;540;49.448;8.612;2023-01-23T04:36:25;3.00;99.90
1107;DHT22;540;49.448;8.612;2023-01-23T04:38:54;3.00;99.90
1107;DHT22;540;49.448;8.612;2023-01-23T04:41:23;3.30;99.90
1107;DHT22;540;49.448;8.612;2023-01-23T04:43:51;3.20;99.90
1107;DHT22;540;49.448;8.612;2023-01-23T04:46:19;3.00;99.90
1107;DHT22;540;49.448;8.612;2023-01-23T04:48:47;3.00;99.90
1107;DHT22;540;49.448;8.612;2023-01-23T04:51:15;3.00;99.90
1107;DHT22;540;49.448;8.612;2023-01-23T04:53:43;3.20;99.90
1107;DHT22;540;49.448;8.612;2023-01-23T04:56:12;2.90;99.90
1107;DHT22;540;49.448;8.612;2023-01-23T04:58:39;3.00;99.90
1107;DHT22;540;49.448;8.612;2023-01-23T05:01:08;3.10;99.90
1107;DHT22;540;49.448;8.612;2023-01-23T05:03:35;3.00;99.90
1107;DHT22;540;49.448;8.612;2023-01-23T05:06:04;2.90;99.90
1107;DHT22;540;49.448;8.612;2023-01-23T05:08:32;3.00;99.90
1107;DHT22;540;49.448;8.612;2023-01-23T05:11:00;3.30;99.90
1107;DHT22;540;49.448;8.612;2023-01-23T05:13:29;3.30;99.90
1107;DHT22;540;49.448;8.612;2023-01-23T05:15:56;3.10;99.90
1107;DHT22;540;49.448;8.612;2023-01-23T05:18:24;3.10;99.90
1107;DHT22;540;49.448;8.612;2023-01-23T05:20:52;3.00;99.90
1107;DHT22;540;49.448;8.612;2023-01-23T05:23:20;2.90;99.90
1107;DHT22;540;49.448;8.612;2023-01-23T05:25:48;2.90;99.90
1107;DHT22;540;49.448;8.612;2023-01-23T05:28:16;3.10;99.90
1107;DHT22;540;49.448;8.612;2023-01-23T05:30:46;3.00;99.90
1107;DHT22;540;49.448;8.612;2023-01-23T05:33:14;3.00;99.90
1107;DHT22;540;49.448;8.612;2023-01-23T05:35:42;3.40;99.90
1107;DHT22;540;49.448;8.612;2023-01-23T05:38:11;3.00;99.90
1107;DHT22;540;49.448;8.612;2023-01-23T05:40:39;3.20;99.90
1107;DHT22;540;49.448;8.612;2023-01-23T05:43:07;3.00;99.90
1107;DHT22;540;49.448;8.612;2023-01-23T05:45:36;3.00;99.90
1107;DHT22;540;49.448;8.612;2023-01-23T05:48:06;2.90;99.90
1107;DHT22;540;49.448;8.612;2023-01-23T05:50:34;3.10;99.90
1107;DHT22;540;49.448;8.612;2023-01-23T05:53:02;3.20;99.90
1107;DHT22;540;49.448;8.612;2023-01-23T05:55:30;3.20;99.90
1107;DHT22;540;49.448;8.612;2023-01-23T05:57:57;3.10;99.90
1107;DHT22;540;49.448;8.612;2023-01-23T06:00:26;3.00;99.90
1107;DHT22;540;49.448;8.612;2023-01-23T06:02:53;3.30;99.90
1107;DHT22;540;49.448;8.612;2023-01-23T06:05:22;3.30;99.90
1107;DHT22;540;49.448;8.612;2023-01-23T06:07:50;3.10;99.90
1107;DHT22;540;49.448;8.612;2023-01-23T06:10:18;3.20;99.90
1107;DHT22;540;49.448;8.612;2023-01-23T06:12:46;3.10;99.90
1107;DHT22;540;49.448;8.612;2023-01-23T06:15:14;3.10;99.90
1107;DHT22;540;49.448;8.612;2023-01-23T06:17:42;3.00;99.90
1107;DHT22;540;49.448;8.612;2023-01-23T06:20:11;3.10;99.90
1107;DHT22;540;49.448;8.612;2023-01-23T06:22:40;3.00;99.90
1107;DHT22;540;49.448;8.612;2023-01-23T06:25:09;2.80;99.90
1107;DHT22;540;49.448;8.612;2023-01-23T06:27:37;3.00;99.90
1107;DHT22;540;49.448;8.612;2023-01-23T06:30:06;3.20;99.90
1107;DHT22;540;49.448;8.612;2023-01-23T06:32:34;2.80;99.90
1107;DHT22;540;49.448;8.612;2023-01-23T06:35:02;2.80;99.90
1107;DHT22;540;49.448;8.612;2023-01-23T06:37:30;3.00;99.90
1107;DHT22;540;49.448;8.612;2023-01-23T06:39:59;3.00;99.90
1107;DHT22;540;49.448;8.612;2023-01-23T06:42:27;2.50;99.90
1107;DHT22;540;49.448;8.612;2023-01-23T06:44:55;2.90;99.90
1107;DHT22;540;49.448;8.612;2023-01-23T06:47:23;2.70;99.90
1107;DHT22;540;49.448;8.612;2023-01-23T06:49:50;2.60;99.90
1107;DHT22;540;49.448;8.612;2023-01-23T06:52:18;2.80;99.90
1107;DHT22;540;49.448;8.612;2023-01-23T06:54:46;2.10;99.90
1107;DHT22;540;49.448;8.612;2023-01-23T06:57:15;2.60;99.90
1107;DHT22;540;49.448;8.612;2023-01-23T06:59:43;2.20;99.90
1107;DHT22;540;49.448;8.612;2023-01-23T07:02:11;2.70;99.90
1107;DHT22;540;49.448;8.612;2023-01-23T07:04:39;2.80;99.90
1107;DHT22;540;49.448;8.612;2023-01-23T07:07:07;2.90;99.90
1107;DHT22;540;49.448;8.612;2023-01-23T07:09:35;2.70;99.90
1107;DHT22;540;49.448;8.612;2023-01-23T07:12:03;2.20;99.90
1107;DHT22;540;49.448;8.612;2023-01-23T07:14:33;2.50;99.90
1107;DHT22;540;49.448;8.612;2023-01-23T07:17:01;2.90;99.90
1107;DHT22;540;49.448;8.612;2023-01-23T07:19:29;2.10;99.90
1107;DHT22;540;49.448;8.612;2023-01-23T07:21:57;2.60;99.90
1107;DHT22;540;49.448;8.612;2023-01-23T07:24:26;2.60;99.90
1107;DHT22;540;49.448;8.612;2023-01-23T07:26:57;2.50;99.90
1107;DHT22;540;49.448;8.612;2023-01-23T07:29:25;2.00;99.90
1107;DHT22;540;49.448;8.612;2023-01-23T07:31:54;2.60;99.90
1107;DHT22;540;49.448;8.612;2023-01-23T07:34:22;3.30;99.90
1107;DHT22;540;49.448;8.612;2023-01-23T07:36:49;2.70;99.90
1107;DHT22;540;49.448;8.612;2023-01-23T07:39:17;2.90;99.90
1107;DHT22;540;49.448;8.612;2023-01-23T07:41:45;2.60;99.90
1107;DHT22;540;49.448;8.612;2023-01-23T07:44:15;2.30;99.90
1107;DHT22;540;49.448;8.612;2023-01-23T07:46:44;2.70;99.90
1107;DHT22;540;49.448;8.612;2023-01-23T07:49:14;2.80;99.90
1107;DHT22;540;49.448;8.612;2023-01-23T07:51:42;3.00;99.90
1107;DHT22;540;49.448;8.612;2023-01-23T07:54:09;3.10;99.90
1107;DHT22;540;49.448;8.612;2023-01-23T07:56:37;2.40;99.90
1107;DHT22;540;49.448;8.612;2023-01-23T07:59:05;3.20;99.90
1107;DHT22;540;49.448;8.612;2023-01-23T08:01:33;3.40;99.90
1107;DHT22;540;49.448;8.612;2023-01-23T08:04:01;3.30;99.90
1107;DHT22;540;49.448;8.612;2023-01-23T08:06:30;3.20;99.90
1107;DHT22;540;49.448;8.612;2023-01-23T08:08:59;3.70;99.90
1107;DHT22;540;49.448;8.612;2023-01-23T08:11:27;3.60;99.90
1107;DHT22;540;49.448;8.612;2023-01-23T08:13:55;3.70;99.90
1107;DHT22;540;49.448;8.612;2023-01-23T08:16:23;3.10;99.90
1107;DHT22;540;49.448;8.612;2023-01-23T08:18:50;3.90;99.90
1107;DHT22;540;49.448;8.612;2023-01-23T08:21:19;4.00;99.90
1107;DHT22;540;49.448;8.612;2023-01-23T08:23:48;3.90;99.90
1107;DHT22;540;49.448;8.612;2023-01-23T08:26:16;3.80;99.90
1107;DHT22;540;49.448;8.612;2023-01-23T08:28:44;3.80;99.90
1107;DHT22;540;49.448;8.612;2023-01-23T08:31:13;4.00;99.90
1107;DHT22;540;49.448;8.612;2023-01-23T08:33:41;3.80;99.90
1107;DHT22;540;49.448;8.612;2023-01-23T08:36:11;3.90;99.90
1107;DHT22;540;49.448;8.612;2023-01-23T08:38:39;3.80;99.90
1107;DHT22;540;49.448;8.612;2023-01-23T08:41:09;4.00;99.90
1107;DHT22;540;49.448;8.612;2023-01-23T08:43:38;3.90;99.90
1107;DHT22;540;49.448;8.612;2023-01-23T08:46:08;3.90;99.90
1107;DHT22;540;49.448;8.612;2023-01-23T08:48:36;3.90;99.90
1107;DHT22;540;49.448;8.612;2023-01-23T08:51:06;3.90;99.90
1107;DHT22;540;49.448;8.612;2023-01-23T08:53:35;4.10;99.90
1107;DHT22;540;49.448;8.612;2023-01-23T08:56:05;3.80;99.90
1107;DHT22;540;49.448;8.612;2023-01-23T08:58:34;3.90;99.90
1107;DHT22;540;49.448;8.612;2023-01-23T09:01:03;3.30;99.90
1107;DHT22;540;49.448;8.612;2023-01-23T09:03:33;3.90;99.90
1107;DHT22;540;49.448;8.612;2023-01-23T09:06:03;3.90;99.90
1107;DHT22;540;49.448;8.612;2023-01-23T09:08:33;4.00;99.90
1107;DHT22;540;49.448;8.612;2023-01-23T09:11:05;4.20;99.90
1107;DHT22;540;49.448;8.612;2023-01-23T09:13:37;4.20;99.90
1107;DHT22;540;49.448;8.612;2023-01-23T09:16:07;3.80;99.90
1107;DHT22;540;49.448;8.612;2023-01-23T09:18:37;3.90;99.90
1107;DHT22;540;49.448;8.612;2023-01-23T09:21:08;3.80;99.90
1107;DHT22;540;49.448;8.612;2023-01-23T09:23:39;4.20;99.90
1107;DHT22;540;49.448;8.612;2023-01-23T09:26:10;4.20;99.90
1107;DHT22;540;49.448;8.612;2023-01-23T09:28:42;4.30;99.90
1107;DHT22;540;49.448;8.612;2023-01-23T09:31:12;4.00;99.90
1107;DHT22;540;49.448;8.612;2023-01-23T09:33:42;4.00;99.90
1107;DHT22;540;49.448;8.612;2023-01-23T09:36:12;4.10;99.90
1107;DHT22;540;49.448;8.612;2023-01-23T09:38:42;4.10;99.90
1107;DHT22;540;49.448;8.612;2023-01-23T09:41:16;3.80;99.90
1107;DHT22;540;49.448;8.612;2023-01-23T09:43:52;4.10;99.90
1107;DHT22;540;49.448;8.612;2023-01-23T09:46:29;4.30;99.90
1107;DHT22;540;49.448;8.612;2023-01-23T09:49:03;4.60;99.90
1107;DHT22;540;49.448;8.612;2023-01-23T09:51:45;4.50;99.90
1107;DHT22;540;49.448;8.612;2023-01-23T09:54:26;4.60;99.90
1107;DHT22;540;49.448;8.612;2023-01-23T09:57:00;4.40;99.90
1107;DHT22;540;49.448;8.612;2023-01-23T09:59:35;4.30;99.90
1107;DHT22;540;49.448;8.612;2023-01-23T10:02:23;4.20;99.50
1107;DHT22;540;49.448;8.612;2023-01-23T10:04:53;3.90;99.90
1107;DHT22;540;49.448;8.612;2023-01-23T10:07:34;3.80;99.80
1107;DHT22;540;49.448;8.612;2023-01-23T10:10:34;3.90;99.60
1107;DHT22;540;49.448;8.612;2023-01-23T10:13:09;4.70;99.90
1107;DHT22;540;49.448;8.612;2023-01-23T10:16:01;4.60;99.90
1107;DHT22;540;49.448;8.612;2023-01-23T10:18:34;4.30;99.30
1107;DHT22;540;49.448;8.612;2023-01-23T10:21:11;4.10;99.70
1107;DHT22;540;49.448;8.612;2023-01-23T10:23:49;4.00;99.90
1107;DHT22;540;49.448;8.612;2023-01-23T10:26:27;4.40;99.90
1107;DHT22;540;49.448;8.612;2023-01-23T10:29:02;4.70;99.90
1107;DHT22;540;49.448;8.612;2023-01-23T10:31:36;4.50;99.20
1107;DHT22;540;49.448;8.612;2023-01-23T10:34:13;4.60;99.90
1107;DHT22;540;49.448;8.612;2023-01-23T10:36:57;4.90;99.90
1107;DHT22;540;49.448;8.612;2023-01-23T10:39:30;4.40;99.90
1107;DHT22;540;49.448;8.612;2023-01-23T10:41:59;4.60;99.90
1107;DHT22;540;49.448;8.612;2023-01-23T10:44:28;4.40;99.90
1107;DHT22;540;49.448;8.612;2023-01-23T10:47:00;4.70;99.90
1107;DHT22;540;49.448;8.612;2023-01-23T10:49:32;4.80;99.70
1107;DHT22;540;49.448;8.612;2023-01-23T10:52:00;4.80;98.80
1107;DHT22;540;49.448;8.612;2023-01-23T10:54:29;4.80;98.60
1107;DHT22;540;49.448;8.612;2023-01-23T10:57:00;5.00;98.30
1107;DHT22;540;49.448;8.612;2023-01-23T10:59:32;4.90;97.80
1107;DHT22;540;49.448;8.612;2023-01-23T11:02:20;4.80;97.90
1107;DHT22;540;49.448;8.612;2023-01-23T11:04:49;5.00;98.20
1107;DHT22;540;49.448;8.612;2023-01-23T11:07:20;4.90;98.40
1107;DHT22;540;49.448;8.612;2023-01-23T11:09:54;4.80;98.40
1107;DHT22;540;49.448;8.612;2023-01-23T11:12:24;4.70;98.40
1107;DHT22;540;49.448;8.612;2023-01-23T11:15:18;4.80;98.30
1107;DHT22;540;49.448;8.612;2023-01-23T11:17:49;4.70;98.20
1107;DHT22;540;49.448;8.612;2023-01-23T11:20:25;4.70;98.40
1107;DHT22;540;49.448;8.612;2023-01-23T11:23:03;4.90;98.90
1107;DHT22;540;49.448;8.612;2023-01-23T11:25:32;5.10;98.60
1107;DHT22;540;49.448;8.612;2023-01-23T11:28:16;4.30;98.10
1107;DHT22;540;49.448;8.612;2023-01-23T11:30:46;4.90;98.40
1107;DHT22;540;49.448;8.612;2023-01-23T11:33:39;4.90;98.70
1107;DHT22;540;49.448;8.612;2023-01-23T11:36:23;5.10;98.60
1107;DHT22;540;49.448;8.612;2023-01-23T11:38:59;5.10;97.80
1107;DHT22;540;49.448;8.612;2023-01-23T11:41:30;4.70;97.40
1107;DHT22;540;49.448;8.612;2023-01-23T11:44:00;4.50;97.50
1107;DHT22;540;49.448;8.612;2023-01-23T11:46:44;4.60;98.00
1107;DHT22;540;49.448;8.612;2023-01-23T11:49:31;5.00;98.70
1107;DHT22;540;49.448;8.612;2023-01-23T11:52:21;5.20;98.10
1107;DHT22;540;49.448;8.612;2023-01-23T11:55:05;5.00;97.60
1107;DHT22;540;49.448;8.612;2023-01-23T11:57:48;5.20;97.50
1107;DHT22;540;49.448;8.612;2023-01-23T12:00:26;5.30;97.50
1107;DHT22;540;49.448;8.612;2023-01-23T12:06:07;5.50;97.10
1107;DHT22;540;49.448;8.612;2023-01-23T12:08:50;5.40;96.80
1107;DHT22;540;49.448;8.612;2023-01-23T12:11:19;4.90;96.40
1107;DHT22;540;49.448;8.612;2023-01-23T12:14:02;5.50;96.90
1107;DHT22;540;49.448;8.612;2023-01-23T12:16:49;5.30;97.70
1107;DHT22;540;49.448;8.612;2023-01-23T12:19:28;5.50;97.50
1107;DHT22;540;49.448;8.612;2023-01-23T12:22:05;5.40;97.30
1107;DHT22;540;49.448;8.612;2023-01-23T12:24:49;4.90;96.70
1107;DHT22;540;49.448;8.612;2023-01-23T12:27:24;5.50;97.10
1107;DHT22;540;49.448;8.612;2023-01-23T12:30:27;5.00;96.70
1107;DHT22;540;49.448;8.612;2023-01-23T12:33:16;5.70;97.00
1107;DHT22;540;49.448;8.612;2023-01-23T12:35:54;4.80;97.20
1107;DHT22;540;49.448;8.612;2023-01-23T12:38:29;5.90;97.40
1107;DHT22;540;49.448;8.612;2023-01-23T12:41:08;5.50;97.20
1107;DHT22;540;49.448;8.612;2023-01-23T12:43:44;5.30;97.20
1107;DHT22;540;49.448;8.612;2023-01-23T12:46:18;5.30;97.30
1107;DHT22;540;49.448;8.612;2023-01-23T12:48:52;5.10;97.30
1107;DHT22;540;49.448;8.612;2023-01-23T12:51:29;5.20;98.40
1107;DHT22;540;49.448;8.612;2023-01-23T12:54:04;5.30;97.70
1107;DHT22;540;49.448;8.612;2023-01-23T12:56:35;5.40;97.60
1107;DHT22;540;49.448;8.612;2023-01-23T12:59:10;4.60;97.30
1107;DHT22;540;49.448;8.612;2023-01-23T13:01:57;5.30;97.60
1107;DHT22;540;49.448;8.612;2023-01-23T13:04:40;5.40;98.50
1107;DHT22;540;49.448;8.612;2023-01-23T13:07:28;5.20;98.10
1107;DHT22;540;49.448;8.612;2023-01-23T13:10:31;5.20;98.30
1107;DHT22;540;49.448;8.612;2023-01-23T13:13:15;5.00;97.60
1107;DHT22;540;49.448;8.612;2023-01-23T13:16:00;4.80;98.30
1107;DHT22;540;49.448;8.612;2023-01-23T13:18:29;5.30;98.80
1107;DHT22;540;49.448;8.612;2023-01-23T13:21:17;4.60;98.20
1107;DHT22;540;49.448;8.612;2023-01-23T13:24:24;5.00;99.00
1107;DHT22;540;49.448;8.612;2023-01-23T13:27:40;5.10;99.30
1107;DHT22;540;49.448;8.612;2023-01-23T13:36:34;4.80;99.10
1107;DHT22;540;49.448;8.612;2023-01-23T13:44:35;5.00;99.90
1107;DHT22;540;49.448;8.612;2023-01-23T13:47:18;5.10;99.90
1107;DHT22;540;49.448;8.612;2023-01-23T13:50:28;5.30;99.50
1107;DHT22;540;49.448;8.612;2023-01-23T13:53:16;5.00;99.10
1107;DHT22;540;49.448;8.612;2023-01-23T13:56:19;5.20;99.00
1107;DHT22;540;49.448;8.612;2023-01-23T13:59:28;4.80;98.30
1107;DHT22;540;49.448;8.612;2023-01-23T14:02:21;5.90;97.00
1107;DHT22;540;49.448;8.612;2023-01-23T14:05:25;5.50;96.50
1107;DHT22;540;49.448;8.612;2023-01-23T14:08:15;6.10;94.40
1107;DHT22;540;49.448;8.612;2023-01-23T14:14:25;6.20;93.80
1107;DHT22;540;49.448;8.612;2023-01-23T14:17:26;5.10;94.80
1107;DHT22;540;49.448;8.612;2023-01-23T14:20:15;5.40;96.00
1107;DHT22;540;49.448;8.612;2023-01-23T14:22:44;4.70;96.30
1107;DHT22;540;49.448;8.612;2023-01-23T14:25:15;5.10;97.50
1107;DHT22;540;49.448;8.612;2023-01-23T14:27:44;5.30;98.40
1107;DHT22;540;49.448;8.612;2023-01-23T14:30:22;4.60;98.60
1107;DHT22;540;49.448;8.612;2023-01-23T14:32:53;5.30;98.70
1107;DHT22;540;49.448;8.612;2023-01-23T14:35:23;5.50;98.00
1107;DHT22;540;49.448;8.612;2023-01-23T14:37:53;5.20;97.60
1107;DHT22;540;49.448;8.612;2023-01-23T14:40:22;5.50;97.20
1107;DHT22;540;49.448;8.612;2023-01-23T14:42:57;5.70;97.00
1107;DHT22;540;49.448;8.612;2023-01-23T14:45:28;5.40;97.00
1107;DHT22;540;49.448;8.612;2023-01-23T14:48:00;5.30;97.30
1107;DHT22;540;49.448;8.612;2023-01-23T14:50:33;5.20;98.10
1107;DHT22;540;49.448;8.612;2023-01-23T14:53:03;5.40;98.80
1107;DHT22;540;49.448;8.612;2023-01-23T14:55:35;5.30;98.50
1107;DHT22;540;49.448;8.612;2023-01-23T14:58:04;4.60;98.80
1107;DHT22;540;49.448;8.612;2023-01-23T15:00:34;5.20;99.10
1107;DHT22;540;49.448;8.612;2023-01-23T15:03:03;5.30;99.00
1107;DHT22;540;49.448;8.612;2023-01-23T15:05:32;4.70;99.10
1107;DHT22;540;49.448;8.612;2023-01-23T15:08:02;4.50;99.40
1107;DHT22;540;49.448;8.612;2023-01-23T15:10:35;4.80;99.80
1107;DHT22;540;49.448;8.612;2023-01-23T15:13:13;4.30;99.30
1107;DHT22;540;49.448;8.612;2023-01-23T15:15:52;4.50;99.70
1107;DHT22;540;49.448;8.612;2023-01-23T15:18:24;4.90;99.90
1107;DHT22;540;49.448;8.612;2023-01-23T15:20:54;5.10;99.90
1107;DHT22;540;49.448;8.612;2023-01-23T15:23:26;4.70;99.90
1107;DHT22;540;49.448;8.612;2023-01-23T15:26:22;4.60;99.90
1107;DHT22;540;49.448;8.612;2023-01-23T15:28:51;4.70;99.90
1107;DHT22;540;49.448;8.612;2023-01-23T15:31:25;4.10;99.90
1107;DHT22;540;49.448;8.612;2023-01-23T15:33:56;4.80;99.90
1107;DHT22;540;49.448;8.612;2023-01-23T15:36:33;4.80;99.90
1107;DHT22;540;49.448;8.612;2023-01-23T15:39:01;4.50;99.90
1107;DHT22;540;49.448;8.612;2023-01-23T15:41:38;4.40;99.90
1107;DHT22;540;49.448;8.612;2023-01-23T15:44:12;4.30;99.90
1107;DHT22;540;49.448;8.612;2023-01-23T15:46:40;3.70;99.90
1107;DHT22;540;49.448;8.612;2023-01-23T15:49:09;3.70;99.90
1107;DHT22;540;49.448;8.612;2023-01-23T15:51:51;3.60;99.90
1107;DHT22;540;49.448;8.612;2023-01-23T15:54:22;4.10;99.90
1107;DHT22;540;49.448;8.612;2023-01-23T15:56:51;4.30;99.90
1107;DHT22;540;49.448;8.612;2023-01-23T15:59:33;4.10;99.90
1107;DHT22;540;49.448;8.612;2023-01-23T16:02:01;4.00;99.90
1107;DHT22;540;49.448;8.612;2023-01-23T16:04:31;3.80;99.90
1107;DHT22;540;49.448;8.612;2023-01-23T16:07:04;4.10;99.90
1107;DHT22;540;49.448;8.612;2023-01-23T16:09:35;4.00;99.90
1107;DHT22;540;49.448;8.612;2023-01-23T16:12:04;3.80;99.90
1107;DHT22;540;49.448;8.612;2023-01-23T16:14:32;3.80;99.90
1107;DHT22;540;49.448;8.612;2023-01-23T16:17:00;3.80;99.90
1107;DHT22;540;49.448;8.612;2023-01-23T16:19:43;4.00;99.90
1107;DHT22;540;49.448;8.612;2023-01-23T16:22:14;3.60;99.90
1107;DHT22;540;49.448;8.612;2023-01-23T16:24:43;3.70;99.90
1107;DHT22;540;49.448;8.612;2023-01-23T16:27:16;3.60;99.90
1107;DHT22;540;49.448;8.612;2023-01-23T16:29:45;3.60;99.90
1107;DHT22;540;49.448;8.612;2023-01-23T16:32:15;3.50;99.90
1107;DHT22;540;49.448;8.612;2023-01-23T16:34:44;3.60;99.90
1107;DHT22;540;49.448;8.612;2023-01-23T16:37:14;3.60;99.90
1107;DHT22;540;49.448;8.612;2023-01-23T16:39:44;3.60;99.90
1107;DHT22;540;49.448;8.612;2023-01-23T16:42:16;3.80;99.90
1107;DHT22;540;49.448;8.612;2023-01-23T16:44:45;3.20;99.90
1107;DHT22;540;49.448;8.612;2023-01-23T16:47:13;3.80;99.90
1107;DHT22;540;49.448;8.612;2023-01-23T16:49:40;3.70;99.90
1107;DHT22;540;49.448;8.612;2023-01-23T16:52:21;3.50;99.90
1107;DHT22;540;49.448;8.612;2023-01-23T16:54:50;3.20;99.90
1107;DHT22;540;49.448;8.612;2023-01-23T16:57:20;3.50;99.90
1107;DHT22;540;49.448;8.612;2023-01-23T16:59:48;3.50;99.90
1107;DHT22;540;49.448;8.612;2023-01-23T17:02:20;3.50;99.90
1107;DHT22;540;49.448;8.612;2023-01-23T17:04:48;3.60;99.90
1107;DHT22;540;49.448;8.612;2023-01-23T17:07:17;3.60;99.90
1107;DHT22;540;49.448;8.612;2023-01-23T17:09:47;3.40;99.90
1107;DHT22;540;49.448;8.612;2023-01-23T17:12:17;3.60;99.90
1107;DHT22;540;49.448;8.612;2023-01-23T17:14:47;3.40;99.90
1107;DHT22;540;49.448;8.612;2023-01-23T17:17:21;3.50;99.90
1107;DHT22;540;49.448;8.612;2023-01-23T17:19:50;3.50;99.90
1107;DHT22;540;49.448;8.612;2023-01-23T17:22:20;3.30;99.90
1107;DHT22;540;49.448;8.612;2023-01-23T17:24:50;3.40;99.90
1107;DHT22;540;49.448;8.612;2023-01-23T17:27:18;3.30;99.90